createdAt,value
2017-10-24T00:00:03.975Z,0
2017-10-24T00:00:36.029Z,0
2017-10-24T00:01:08.047Z,0
2017-10-24T00:01:40.112Z,0
2017-10-24T00:02:12.179Z,0
2017-10-24T00:02:44.269Z,0
2017-10-24T00:03:16.340Z,0
2017-10-24T00:03:48.948Z,0
2017-10-24T00:04:21.064Z,0
2017-10-24T00:04:53.249Z,0
2017-10-24T00:05:25.401Z,0
2017-10-24T00:05:57.673Z,0
2017-10-24T00:06:29.693Z,0
2017-10-24T00:07:01.899Z,0
2017-10-24T00:07:34.038Z,0
2017-10-24T00:08:06.122Z,0
2017-10-24T00:08:38.320Z,0
2017-10-24T00:09:10.606Z,0
2017-10-24T00:09:42.797Z,0
2017-10-24T00:10:14.953Z,0
2017-10-24T00:10:47.243Z,0
2017-10-24T00:11:19.418Z,0
2017-10-24T00:11:51.591Z,0
2017-10-24T00:12:23.615Z,0
2017-10-24T00:12:55.800Z,0
2017-10-24T00:13:27.871Z,0
2017-10-24T00:13:59.938Z,0
2017-10-24T00:14:32.030Z,0
2017-10-24T00:15:04.224Z,0
2017-10-24T00:15:36.305Z,0
2017-10-24T00:16:08.624Z,0
2017-10-24T00:16:40.875Z,0
2017-10-24T00:17:12.990Z,0
2017-10-24T00:17:45.177Z,0
2017-10-24T00:18:17.203Z,0
2017-10-24T00:18:49.411Z,0
2017-10-24T00:19:21.624Z,0
2017-10-24T00:19:53.844Z,0
2017-10-24T00:20:26.044Z,0
2017-10-24T00:20:58.190Z,0
2017-10-24T00:21:30.252Z,0
2017-10-24T00:22:02.280Z,0
2017-10-24T00:22:34.568Z,0
2017-10-24T00:23:06.718Z,0
2017-10-24T00:23:38.903Z,0
2017-10-24T00:24:10.981Z,0
2017-10-24T00:24:43.057Z,0
2017-10-24T00:25:15.216Z,0
2017-10-24T00:25:47.360Z,0
2017-10-24T00:26:19.430Z,0
2017-10-24T00:26:51.495Z,0
2017-10-24T00:27:23.568Z,0
2017-10-24T00:27:55.698Z,0
2017-10-24T00:28:27.892Z,0
2017-10-24T00:29:00.028Z,0
2017-10-24T00:29:32.100Z,0
2017-10-24T00:30:04.176Z,0
2017-10-24T00:30:36.314Z,0
2017-10-24T00:31:08.412Z,0
2017-10-24T00:31:40.528Z,0
2017-10-24T00:32:12.606Z,0
2017-10-24T00:32:44.800Z,0
2017-10-24T00:33:16.817Z,0
2017-10-24T00:33:48.961Z,0
2017-10-24T00:34:21.279Z,0
2017-10-24T00:34:53.483Z,0
2017-10-24T00:35:25.682Z,0
2017-10-24T00:35:57.764Z,0
2017-10-24T00:36:29.892Z,0
2017-10-24T00:37:01.919Z,0
2017-10-24T00:37:34.212Z,0
2017-10-24T00:38:06.392Z,0
2017-10-24T00:38:38.566Z,0
2017-10-24T00:39:10.650Z,0
2017-10-24T00:39:42.809Z,0
2017-10-24T00:40:15.054Z,0
2017-10-24T00:40:47.144Z,0
2017-10-24T00:41:19.185Z,0
2017-10-24T00:41:51.394Z,0
2017-10-24T00:42:23.582Z,0
2017-10-24T00:42:55.682Z,0
2017-10-24T00:43:27.814Z,0
2017-10-24T00:43:59.900Z,0
2017-10-24T00:44:32.167Z,0
2017-10-24T00:45:04.341Z,0
2017-10-24T00:45:37.248Z,0
2017-10-24T00:46:09.547Z,0
2017-10-24T00:46:41.587Z,0
2017-10-24T00:47:14.602Z,0
2017-10-24T00:47:46.749Z,0
2017-10-24T00:48:18.881Z,0
2017-10-24T00:48:50.963Z,0
2017-10-24T00:49:23.108Z,0
2017-10-24T00:49:55.335Z,0
2017-10-24T00:50:27.489Z,0
2017-10-24T00:50:59.748Z,0
2017-10-24T00:51:31.911Z,0
2017-10-24T00:52:04.923Z,0
2017-10-24T00:52:37.014Z,0
2017-10-24T00:53:09.209Z,0
2017-10-24T00:53:41.349Z,0
2017-10-24T00:54:13.392Z,0
2017-10-24T00:54:45.478Z,0
2017-10-24T00:55:17.560Z,0
2017-10-24T00:55:49.635Z,0
2017-10-24T00:56:21.763Z,0
2017-10-24T00:56:53.842Z,0
2017-10-24T00:57:26.004Z,0
2017-10-24T00:57:58.996Z,0
2017-10-24T00:58:31.075Z,0
2017-10-24T00:59:03.314Z,0
2017-10-24T00:59:35.439Z,0
2017-10-24T01:00:07.603Z,0
2017-10-24T01:00:39.686Z,0
2017-10-24T01:01:11.785Z,0
2017-10-24T01:01:43.855Z,0
2017-10-24T01:02:16.753Z,0
2017-10-24T01:02:48.880Z,0
2017-10-24T01:03:20.957Z,0
2017-10-24T01:03:53.105Z,0
2017-10-24T01:04:25.243Z,0
2017-10-24T01:04:57.363Z,0
2017-10-24T01:05:29.444Z,0
2017-10-24T01:06:01.587Z,0
2017-10-24T01:06:33.794Z,0
2017-10-24T01:07:05.936Z,0
2017-10-24T01:07:38.063Z,0
2017-10-24T01:08:10.261Z,0
2017-10-24T01:08:42.339Z,0
2017-10-24T01:09:14.595Z,0
2017-10-24T01:09:46.736Z,0
2017-10-24T01:10:18.938Z,0
2017-10-24T01:10:50.974Z,0
2017-10-24T01:11:23.062Z,0
2017-10-24T01:11:55.268Z,0
2017-10-24T01:12:27.430Z,0
2017-10-24T01:12:59.576Z,0
2017-10-24T01:13:31.660Z,0
2017-10-24T01:14:03.808Z,0
2017-10-24T01:14:35.890Z,0
2017-10-24T01:15:07.904Z,0
2017-10-24T01:15:40.096Z,0
2017-10-24T01:16:13.146Z,0
2017-10-24T01:16:45.342Z,0
2017-10-24T01:17:17.548Z,0
2017-10-24T01:17:49.572Z,0
2017-10-24T01:18:21.711Z,0
2017-10-24T01:18:53.814Z,0
2017-10-24T01:19:25.903Z,0
2017-10-24T01:19:57.985Z,0
2017-10-24T01:20:29.999Z,0
2017-10-24T01:21:02.163Z,0
2017-10-24T01:21:34.419Z,0
2017-10-24T01:22:06.577Z,0
2017-10-24T01:22:38.702Z,0
2017-10-24T01:23:10.783Z,0
2017-10-24T01:23:42.972Z,0
2017-10-24T01:24:15.145Z,0
2017-10-24T01:24:47.326Z,0
2017-10-24T01:25:19.505Z,0
2017-10-24T01:25:51.814Z,0
2017-10-24T01:26:23.964Z,0
2017-10-24T01:26:56.036Z,0
2017-10-24T01:27:28.177Z,0
2017-10-24T01:28:00.178Z,0
2017-10-24T01:28:32.254Z,0
2017-10-24T01:29:04.276Z,0
2017-10-24T01:29:36.309Z,0
2017-10-24T01:30:08.444Z,0
2017-10-24T01:30:40.644Z,0
2017-10-24T01:31:12.666Z,0
2017-10-24T01:31:44.947Z,0
2017-10-24T01:32:17.067Z,0
2017-10-24T01:32:49.177Z,0
2017-10-24T01:33:21.317Z,0
2017-10-24T01:33:53.608Z,0
2017-10-24T01:34:25.842Z,0
2017-10-24T01:34:58.023Z,0
2017-10-24T01:35:30.192Z,0
2017-10-24T01:36:02.322Z,0
2017-10-24T01:36:34.417Z,0
2017-10-24T01:37:06.666Z,0
2017-10-24T01:37:38.732Z,0
2017-10-24T01:38:11.018Z,0
2017-10-24T01:38:43.179Z,0
2017-10-24T01:39:15.265Z,0
2017-10-24T01:39:47.587Z,0
2017-10-24T01:40:20.548Z,0
2017-10-24T01:40:52.795Z,0
2017-10-24T01:41:24.937Z,0
2017-10-24T01:41:57.022Z,0
2017-10-24T01:42:29.106Z,0
2017-10-24T01:43:01.249Z,0
2017-10-24T01:43:33.401Z,0
2017-10-24T01:44:05.494Z,0
2017-10-24T01:44:37.742Z,0
2017-10-24T01:45:09.900Z,0
2017-10-24T01:45:42.080Z,0
2017-10-24T01:46:14.189Z,0
2017-10-24T01:46:46.272Z,0
2017-10-24T01:47:18.348Z,0
2017-10-24T01:47:50.479Z,0
2017-10-24T01:48:22.506Z,0
2017-10-24T01:48:54.578Z,0
2017-10-24T01:49:26.598Z,0
2017-10-24T01:49:58.730Z,0
2017-10-24T01:50:30.774Z,0
2017-10-24T01:51:02.995Z,0
2017-10-24T01:51:35.240Z,0
2017-10-24T01:52:07.383Z,0
2017-10-24T01:52:39.515Z,0
2017-10-24T01:53:11.681Z,0
2017-10-24T01:53:43.963Z,0
2017-10-24T01:54:16.112Z,0
2017-10-24T01:54:48.187Z,0
2017-10-24T01:55:20.314Z,0
2017-10-24T01:55:52.347Z,0
2017-10-24T01:56:24.494Z,0
2017-10-24T01:56:56.692Z,0
2017-10-24T01:57:28.834Z,0
2017-10-24T01:58:00.966Z,0
2017-10-24T01:58:33.051Z,0
2017-10-24T01:59:05.226Z,0
2017-10-24T01:59:37.374Z,0
2017-10-24T02:00:09.497Z,0
2017-10-24T02:00:41.818Z,0
2017-10-24T02:01:13.930Z,0
2017-10-24T02:01:46.014Z,0
2017-10-24T02:02:18.108Z,0
2017-10-24T02:02:50.312Z,0
2017-10-24T02:03:22.466Z,0
2017-10-24T02:03:54.565Z,0
2017-10-24T02:04:26.753Z,0
2017-10-24T02:04:58.942Z,0
2017-10-24T02:05:31.080Z,0
2017-10-24T02:06:03.173Z,0
2017-10-24T02:06:35.427Z,0
2017-10-24T02:07:07.557Z,0
2017-10-24T02:07:39.734Z,0
2017-10-24T02:08:11.962Z,0
2017-10-24T02:08:44.196Z,0
2017-10-24T02:09:16.404Z,0
2017-10-24T02:09:48.620Z,0
2017-10-24T02:10:20.754Z,0
2017-10-24T02:10:52.867Z,0
2017-10-24T02:11:24.897Z,0
2017-10-24T02:11:57.200Z,0
2017-10-24T02:12:29.450Z,0
2017-10-24T02:13:01.538Z,0
2017-10-24T02:13:33.768Z,0
2017-10-24T02:14:05.795Z,0
2017-10-24T02:14:37.924Z,0
2017-10-24T02:15:10.010Z,0
2017-10-24T02:15:42.161Z,0
2017-10-24T02:16:14.303Z,0
2017-10-24T02:16:46.446Z,0
2017-10-24T02:17:18.637Z,0
2017-10-24T02:17:50.776Z,0
2017-10-24T02:18:22.871Z,0
2017-10-24T02:18:55.050Z,0
2017-10-24T02:19:27.202Z,0
2017-10-24T02:19:59.276Z,0
2017-10-24T02:20:31.404Z,0
2017-10-24T02:21:03.546Z,0
2017-10-24T02:21:35.622Z,0
2017-10-24T02:22:07.639Z,0
2017-10-24T02:22:39.770Z,0
2017-10-24T02:23:11.909Z,0
2017-10-24T02:23:44.009Z,0
2017-10-24T02:24:16.047Z,0
2017-10-24T02:24:48.195Z,0
2017-10-24T02:25:20.346Z,0
2017-10-24T02:25:52.657Z,0
2017-10-24T02:26:24.784Z,0
2017-10-24T02:26:56.810Z,0
2017-10-24T02:27:28.906Z,0
2017-10-24T02:28:01.036Z,0
2017-10-24T02:28:33.124Z,0
2017-10-24T02:29:05.307Z,0
2017-10-24T02:29:37.448Z,0
2017-10-24T02:30:09.465Z,0
2017-10-24T02:30:41.588Z,0
2017-10-24T02:31:13.673Z,0
2017-10-24T02:31:45.812Z,0
2017-10-24T02:32:17.958Z,0
2017-10-24T02:32:50.096Z,0
2017-10-24T02:33:22.288Z,0
2017-10-24T02:33:54.500Z,0
2017-10-24T02:34:26.533Z,0
2017-10-24T02:34:58.698Z,0
2017-10-24T02:35:30.961Z,0
2017-10-24T02:36:03.120Z,0
2017-10-24T02:36:35.264Z,0
2017-10-24T02:37:07.336Z,0
2017-10-24T02:37:40.203Z,0
2017-10-24T02:38:12.401Z,0
2017-10-24T02:38:44.651Z,0
2017-10-24T02:39:16.740Z,0
2017-10-24T02:39:48.896Z,0
2017-10-24T02:40:21.043Z,0
2017-10-24T02:40:53.190Z,0
2017-10-24T02:41:25.207Z,0
2017-10-24T02:41:57.290Z,0
2017-10-24T02:42:29.368Z,0
2017-10-24T02:43:01.383Z,0
2017-10-24T02:43:33.578Z,0
2017-10-24T02:44:05.656Z,0
2017-10-24T02:44:37.692Z,0
2017-10-24T02:45:09.758Z,0
2017-10-24T02:45:41.787Z,0
2017-10-24T02:46:13.920Z,0
2017-10-24T02:46:46.087Z,0
2017-10-24T02:47:18.240Z,0
2017-10-24T02:47:50.386Z,0
2017-10-24T02:48:22.549Z,0
2017-10-24T02:48:54.634Z,0
2017-10-24T02:49:26.813Z,0
2017-10-24T02:49:59.025Z,0
2017-10-24T02:50:31.211Z,0
2017-10-24T02:51:03.250Z,0
2017-10-24T02:51:35.375Z,0
2017-10-24T02:52:08.076Z,0
2017-10-24T02:52:40.215Z,0
2017-10-24T02:53:12.395Z,0
2017-10-24T02:53:44.418Z,0
2017-10-24T02:54:16.562Z,0
2017-10-24T02:54:48.707Z,0
2017-10-24T02:55:20.842Z,0
2017-10-24T02:55:53.042Z,0
2017-10-24T02:56:25.088Z,0
2017-10-24T02:56:57.223Z,0
2017-10-24T02:57:29.314Z,0
2017-10-24T02:58:01.385Z,0
2017-10-24T02:58:33.408Z,0
2017-10-24T02:59:05.538Z,0
2017-10-24T02:59:37.738Z,0
2017-10-24T03:00:09.824Z,0
2017-10-24T03:00:42.007Z,0
2017-10-24T03:01:14.190Z,0
2017-10-24T03:01:46.326Z,0
2017-10-24T03:02:18.352Z,0
2017-10-24T03:02:50.484Z,0
2017-10-24T03:03:22.609Z,0
2017-10-24T03:03:54.863Z,0
2017-10-24T03:04:27.044Z,0
2017-10-24T03:04:59.200Z,0
2017-10-24T03:05:31.275Z,0
2017-10-24T03:06:03.384Z,0
2017-10-24T03:06:35.498Z,0
2017-10-24T03:07:07.634Z,0
2017-10-24T03:07:39.793Z,0
2017-10-24T03:08:11.913Z,0
2017-10-24T03:08:44.006Z,0
2017-10-24T03:09:16.146Z,0
2017-10-24T03:09:48.217Z,0
2017-10-24T03:10:20.280Z,0
2017-10-24T03:10:52.402Z,0
2017-10-24T03:11:24.517Z,0
2017-10-24T03:11:56.750Z,0
2017-10-24T03:12:28.944Z,0
2017-10-24T03:13:01.081Z,0
2017-10-24T03:13:33.232Z,0
2017-10-24T03:14:05.305Z,0
2017-10-24T03:14:37.377Z,0
2017-10-24T03:15:09.528Z,0
2017-10-24T03:15:41.733Z,0
2017-10-24T03:16:14.599Z,0
2017-10-24T03:16:46.659Z,0
2017-10-24T03:17:19.745Z,0
2017-10-24T03:17:51.816Z,0
2017-10-24T03:18:23.899Z,0
2017-10-24T03:18:56.075Z,0
2017-10-24T03:19:28.278Z,0
2017-10-24T03:20:00.421Z,0
2017-10-24T03:20:32.583Z,0
2017-10-24T03:21:04.670Z,0
2017-10-24T03:21:36.752Z,0
2017-10-24T03:22:08.932Z,0
2017-10-24T03:22:41.059Z,0
2017-10-24T03:23:13.209Z,0
2017-10-24T03:23:45.237Z,0
2017-10-24T03:24:17.440Z,0
2017-10-24T03:24:49.536Z,0
2017-10-24T03:25:21.855Z,0
2017-10-24T03:25:53.954Z,0
2017-10-24T03:26:26.131Z,0
2017-10-24T03:26:58.392Z,0
2017-10-24T03:27:30.470Z,0
2017-10-24T03:28:02.490Z,0
2017-10-24T03:28:34.673Z,0
2017-10-24T03:29:06.821Z,0
2017-10-24T03:29:38.887Z,0
2017-10-24T03:30:11.134Z,0
2017-10-24T03:30:43.213Z,0
2017-10-24T03:31:15.423Z,0
2017-10-24T03:31:47.611Z,0
2017-10-24T03:32:19.731Z,0
2017-10-24T03:32:51.871Z,0
2017-10-24T03:33:23.976Z,0
2017-10-24T03:33:56.124Z,0
2017-10-24T03:34:28.234Z,0
2017-10-24T03:35:00.421Z,0
2017-10-24T03:35:32.571Z,0
2017-10-24T03:36:04.748Z,0
2017-10-24T03:36:36.916Z,0
2017-10-24T03:37:09.110Z,0
2017-10-24T03:37:41.249Z,0
2017-10-24T03:38:13.270Z,0
2017-10-24T03:38:45.524Z,0
2017-10-24T03:39:17.666Z,0
2017-10-24T03:39:49.694Z,0
2017-10-24T03:40:21.946Z,0
2017-10-24T03:40:54.022Z,0
2017-10-24T03:41:26.266Z,0
2017-10-24T03:41:58.544Z,0
2017-10-24T03:42:30.609Z,0
2017-10-24T03:43:02.744Z,0
2017-10-24T03:43:34.905Z,0
2017-10-24T03:44:07.159Z,0
2017-10-24T03:44:39.332Z,0
2017-10-24T03:45:11.474Z,0
2017-10-24T03:45:43.751Z,0
2017-10-24T03:46:15.880Z,0
2017-10-24T03:46:48.017Z,0
2017-10-24T03:47:20.208Z,0
2017-10-24T03:47:52.453Z,0
2017-10-24T03:48:24.671Z,0
2017-10-24T03:48:56.872Z,0
2017-10-24T03:49:29.121Z,0
2017-10-24T03:50:01.355Z,0
2017-10-24T03:50:33.431Z,0
2017-10-24T03:51:05.716Z,0
2017-10-24T03:51:37.814Z,0
2017-10-24T03:52:09.882Z,0
2017-10-24T03:52:41.945Z,0
2017-10-24T03:53:14.122Z,0
2017-10-24T03:53:46.213Z,0
2017-10-24T03:54:18.335Z,0
2017-10-24T03:54:50.598Z,0
2017-10-24T03:55:22.741Z,0
2017-10-24T03:55:54.884Z,0
2017-10-24T03:56:27.011Z,0
2017-10-24T03:56:59.156Z,0
2017-10-24T03:57:31.305Z,0
2017-10-24T03:58:03.518Z,0
2017-10-24T03:58:35.781Z,0
2017-10-24T03:59:07.996Z,0
2017-10-24T03:59:40.199Z,0
2017-10-24T04:00:12.340Z,0
2017-10-24T04:00:44.490Z,0
2017-10-24T04:01:16.670Z,0
2017-10-24T04:01:48.852Z,0
2017-10-24T04:02:21.030Z,0
2017-10-24T04:02:53.211Z,0
2017-10-24T04:03:25.243Z,0
2017-10-24T04:03:57.288Z,0
2017-10-24T04:04:29.378Z,0
2017-10-24T04:05:01.562Z,0
2017-10-24T04:05:33.702Z,0
2017-10-24T04:06:05.765Z,0
2017-10-24T04:06:37.827Z,0
2017-10-24T04:07:10.004Z,0
2017-10-24T04:07:42.090Z,0
2017-10-24T04:08:14.161Z,0
2017-10-24T04:08:46.400Z,0
2017-10-24T04:09:18.564Z,0
2017-10-24T04:09:50.754Z,0
2017-10-24T04:10:22.840Z,0
2017-10-24T04:10:54.971Z,0
2017-10-24T04:11:26.971Z,0
2017-10-24T04:11:59.057Z,0
2017-10-24T04:12:31.186Z,0
2017-10-24T04:13:03.285Z,0
2017-10-24T04:13:35.481Z,0
2017-10-24T04:14:07.740Z,0
2017-10-24T04:14:39.818Z,0
2017-10-24T04:15:12.008Z,0
2017-10-24T04:15:44.041Z,0
2017-10-24T04:16:16.113Z,0
2017-10-24T04:16:48.245Z,0
2017-10-24T04:17:20.398Z,0
2017-10-24T04:17:52.592Z,0
2017-10-24T04:18:24.894Z,0
2017-10-24T04:18:56.962Z,0
2017-10-24T04:19:29.094Z,0
2017-10-24T04:20:01.176Z,0
2017-10-24T04:20:33.331Z,0
2017-10-24T04:21:05.405Z,0
2017-10-24T04:21:37.655Z,0
2017-10-24T04:22:09.740Z,0
2017-10-24T04:22:41.909Z,0
2017-10-24T04:23:13.973Z,0
2017-10-24T04:23:46.102Z,0
2017-10-24T04:24:18.287Z,0
2017-10-24T04:24:50.420Z,0
2017-10-24T04:25:22.549Z,0
2017-10-24T04:25:54.831Z,0
2017-10-24T04:26:26.999Z,0
2017-10-24T04:26:59.248Z,0
2017-10-24T04:27:31.321Z,0
2017-10-24T04:28:03.468Z,0
2017-10-24T04:28:35.491Z,0
2017-10-24T04:29:07.580Z,0
2017-10-24T04:29:39.709Z,0
2017-10-24T04:30:11.783Z,0
2017-10-24T04:30:44.041Z,0
2017-10-24T04:31:16.192Z,0
2017-10-24T04:31:48.397Z,0
2017-10-24T04:32:20.528Z,0
2017-10-24T04:32:52.686Z,0
2017-10-24T04:33:24.911Z,0
2017-10-24T04:33:56.998Z,0
2017-10-24T04:34:29.189Z,0
2017-10-24T04:35:01.328Z,0
2017-10-24T04:35:33.465Z,0
2017-10-24T04:36:05.627Z,0
2017-10-24T04:36:37.881Z,0
2017-10-24T04:37:09.954Z,0
2017-10-24T04:37:42.263Z,0
2017-10-24T04:38:15.332Z,0
2017-10-24T04:38:47.531Z,0
2017-10-24T04:39:19.672Z,0
2017-10-24T04:39:51.846Z,0
2017-10-24T04:40:23.976Z,0
2017-10-24T04:40:56.171Z,0
2017-10-24T04:41:28.291Z,0
2017-10-24T04:42:00.359Z,0
2017-10-24T04:42:32.495Z,0
2017-10-24T04:43:04.761Z,0
2017-10-24T04:43:36.890Z,0
2017-10-24T04:44:09.005Z,0
2017-10-24T04:44:41.097Z,0
2017-10-24T04:45:13.751Z,0
2017-10-24T04:45:45.895Z,0
2017-10-24T04:46:18.184Z,0
2017-10-24T04:46:50.253Z,0
2017-10-24T04:47:22.328Z,0
2017-10-24T04:47:54.523Z,0
2017-10-24T04:48:26.596Z,0
2017-10-24T04:48:58.688Z,0
2017-10-24T04:49:30.813Z,0
2017-10-24T04:50:02.940Z,0
2017-10-24T04:50:35.204Z,0
2017-10-24T04:51:07.409Z,0
2017-10-24T04:51:39.595Z,0
2017-10-24T04:52:11.784Z,0
2017-10-24T04:52:43.996Z,0
2017-10-24T04:53:16.010Z,0
2017-10-24T04:53:48.020Z,0
2017-10-24T04:54:20.112Z,0
2017-10-24T04:54:52.320Z,0
2017-10-24T04:55:24.524Z,0
2017-10-24T04:55:56.666Z,0
2017-10-24T04:56:28.917Z,0
2017-10-24T04:57:01.040Z,0
2017-10-24T04:57:33.171Z,0
2017-10-24T04:58:05.256Z,0
2017-10-24T04:58:37.286Z,0
2017-10-24T04:59:09.409Z,0
2017-10-24T04:59:41.494Z,0
2017-10-24T05:00:13.683Z,0
2017-10-24T05:00:45.799Z,0
2017-10-24T05:01:17.998Z,0
2017-10-24T05:01:50.215Z,0
2017-10-24T05:02:22.335Z,0
2017-10-24T05:02:54.434Z,0
2017-10-24T05:03:26.513Z,0
2017-10-24T05:03:58.734Z,0
2017-10-24T05:04:30.903Z,0
2017-10-24T05:05:03.024Z,0
2017-10-24T05:05:35.121Z,0
2017-10-24T05:06:07.242Z,0
2017-10-24T05:06:39.402Z,0
2017-10-24T05:07:11.480Z,0
2017-10-24T05:07:43.667Z,0
2017-10-24T05:08:15.866Z,0
2017-10-24T05:08:48.166Z,0
2017-10-24T05:09:20.257Z,0
2017-10-24T05:09:52.598Z,0
2017-10-24T05:10:24.667Z,0
2017-10-24T05:10:56.818Z,0
2017-10-24T05:11:29.065Z,0
2017-10-24T05:12:01.284Z,0
2017-10-24T05:12:33.452Z,0
2017-10-24T05:13:05.573Z,0
2017-10-24T05:13:37.796Z,0
2017-10-24T05:14:09.987Z,0
2017-10-24T05:14:42.242Z,0
2017-10-24T05:15:14.326Z,0
2017-10-24T05:15:46.569Z,0
2017-10-24T05:16:18.701Z,0
2017-10-24T05:16:50.785Z,0
2017-10-24T05:17:22.970Z,0
2017-10-24T05:17:55.117Z,0
2017-10-24T05:18:27.256Z,0
2017-10-24T05:18:59.350Z,0
2017-10-24T05:19:31.384Z,0
2017-10-24T05:20:03.473Z,0
2017-10-24T05:20:35.720Z,0
2017-10-24T05:21:07.789Z,0
2017-10-24T05:21:39.903Z,0
2017-10-24T05:22:12.045Z,0
2017-10-24T05:22:44.368Z,0
2017-10-24T05:23:16.592Z,0
2017-10-24T05:23:48.802Z,0
2017-10-24T05:24:20.952Z,0
2017-10-24T05:24:53.079Z,0
2017-10-24T05:25:25.212Z,0
2017-10-24T05:25:57.412Z,0
2017-10-24T05:26:29.540Z,0
2017-10-24T05:27:01.797Z,0
2017-10-24T05:27:33.824Z,0
2017-10-24T05:28:06.004Z,0
2017-10-24T05:28:38.137Z,0
2017-10-24T05:29:10.279Z,0
2017-10-24T05:29:42.316Z,0
2017-10-24T05:30:14.477Z,0
2017-10-24T05:30:46.692Z,0
2017-10-24T05:31:18.871Z,0
2017-10-24T05:31:51.079Z,0
2017-10-24T05:32:23.284Z,0
2017-10-24T05:32:55.357Z,0
2017-10-24T05:33:27.461Z,0
2017-10-24T05:33:59.600Z,0
2017-10-24T05:34:31.750Z,0
2017-10-24T05:35:03.774Z,0
2017-10-24T05:35:35.956Z,0
2017-10-24T05:36:08.046Z,0
2017-10-24T05:36:40.238Z,0
2017-10-24T05:37:12.514Z,0
2017-10-24T05:37:44.712Z,0
2017-10-24T05:38:16.918Z,0
2017-10-24T05:38:49.153Z,0
2017-10-24T05:39:21.343Z,0
2017-10-24T05:39:53.527Z,0
2017-10-24T05:40:25.599Z,0
2017-10-24T05:40:57.897Z,0
2017-10-24T05:41:30.044Z,0
2017-10-24T05:42:02.106Z,0
2017-10-24T05:42:34.337Z,0
2017-10-24T05:43:06.502Z,0
2017-10-24T05:43:38.731Z,0
2017-10-24T05:44:10.764Z,0
2017-10-24T05:44:42.846Z,0
2017-10-24T05:45:15.054Z,0
2017-10-24T05:45:47.250Z,0
2017-10-24T05:46:20.262Z,0
2017-10-24T05:46:52.413Z,0
2017-10-24T05:47:24.543Z,0
2017-10-24T05:47:56.554Z,0
2017-10-24T05:48:28.698Z,0
2017-10-24T05:49:00.958Z,0
2017-10-24T05:49:33.187Z,0
2017-10-24T05:50:05.382Z,4
2017-10-24T05:50:37.459Z,4
2017-10-24T05:51:09.613Z,0
2017-10-24T05:51:41.799Z,0
2017-10-24T05:52:13.938Z,4
2017-10-24T05:52:46.144Z,4
2017-10-24T05:53:18.278Z,4
2017-10-24T05:53:50.395Z,4
2017-10-24T05:54:22.515Z,4
2017-10-24T05:54:54.789Z,4
2017-10-24T05:55:26.929Z,4
2017-10-24T05:55:58.993Z,4
2017-10-24T05:56:31.116Z,8
2017-10-24T05:57:03.323Z,8
2017-10-24T05:57:35.363Z,4
2017-10-24T05:58:07.467Z,8
2017-10-24T05:58:39.681Z,8
2017-10-24T05:59:11.875Z,8
2017-10-24T05:59:43.944Z,8
2017-10-24T06:00:16.052Z,8
2017-10-24T06:00:48.206Z,12
2017-10-24T06:01:20.404Z,8
2017-10-24T06:01:52.538Z,12
2017-10-24T06:02:24.568Z,8
2017-10-24T06:02:57.376Z,8
2017-10-24T06:03:29.408Z,8
2017-10-24T06:04:01.579Z,12
2017-10-24T06:04:33.663Z,12
2017-10-24T06:05:05.916Z,12
2017-10-24T06:05:37.985Z,12
2017-10-24T06:06:10.116Z,12
2017-10-24T06:06:42.137Z,12
2017-10-24T06:07:14.366Z,12
2017-10-24T06:07:46.642Z,12
2017-10-24T06:08:18.717Z,12
2017-10-24T06:08:50.963Z,16
2017-10-24T06:09:22.994Z,16
2017-10-24T06:09:55.207Z,16
2017-10-24T06:10:27.286Z,12
2017-10-24T06:10:59.317Z,16
2017-10-24T06:11:31.574Z,16
2017-10-24T06:12:03.823Z,16
2017-10-24T06:12:35.945Z,20
2017-10-24T06:13:08.862Z,20
2017-10-24T06:13:40.953Z,24
2017-10-24T06:14:13.103Z,24
2017-10-24T06:14:45.281Z,24
2017-10-24T06:15:17.484Z,24
2017-10-24T06:15:50.221Z,24
2017-10-24T06:16:22.494Z,24
2017-10-24T06:16:54.618Z,28
2017-10-24T06:17:26.770Z,28
2017-10-24T06:17:58.841Z,28
2017-10-24T06:18:30.904Z,32
2017-10-24T06:19:03.168Z,36
2017-10-24T06:19:35.369Z,36
2017-10-24T06:20:07.502Z,36
2017-10-24T06:20:39.652Z,40
2017-10-24T06:21:11.774Z,40
2017-10-24T06:21:43.796Z,36
2017-10-24T06:22:15.893Z,36
2017-10-24T06:22:47.921Z,40
2017-10-24T06:23:19.945Z,36
2017-10-24T06:23:52.039Z,40
2017-10-24T06:24:24.194Z,40
2017-10-24T06:24:56.390Z,40
2017-10-24T06:25:28.600Z,44
2017-10-24T06:26:00.856Z,44
2017-10-24T06:26:33.072Z,44
2017-10-24T06:27:05.347Z,48
2017-10-24T06:27:37.438Z,48
2017-10-24T06:28:09.581Z,52
2017-10-24T06:28:41.777Z,52
2017-10-24T06:29:13.882Z,48
2017-10-24T06:29:45.971Z,48
2017-10-24T06:30:18.638Z,48
2017-10-24T06:30:50.761Z,52
2017-10-24T06:31:22.927Z,52
2017-10-24T06:31:55.188Z,48
2017-10-24T06:32:27.426Z,48
2017-10-24T06:32:59.617Z,52
2017-10-24T06:33:31.869Z,52
2017-10-24T06:34:04.059Z,52
2017-10-24T06:34:36.271Z,52
2017-10-24T06:35:08.353Z,48
2017-10-24T06:35:40.658Z,48
2017-10-24T06:36:12.818Z,56
2017-10-24T06:36:44.897Z,56
2017-10-24T06:37:17.056Z,56
2017-10-24T06:37:49.318Z,60
2017-10-24T06:38:21.561Z,56
2017-10-24T06:38:53.713Z,56
2017-10-24T06:39:25.797Z,56
2017-10-24T06:39:57.999Z,56
2017-10-24T06:40:30.333Z,60
2017-10-24T06:41:02.573Z,64
2017-10-24T06:41:34.695Z,72
2017-10-24T06:42:06.849Z,72
2017-10-24T06:42:39.066Z,72
2017-10-24T06:43:11.192Z,72
2017-10-24T06:43:43.325Z,76
2017-10-24T06:44:15.372Z,76
2017-10-24T06:44:47.559Z,84
2017-10-24T06:45:19.748Z,92
2017-10-24T06:45:51.977Z,96
2017-10-24T06:46:24.128Z,96
2017-10-24T06:46:56.153Z,96
2017-10-24T06:47:28.226Z,96
2017-10-24T06:48:00.420Z,96
2017-10-24T06:48:32.726Z,104
2017-10-24T06:49:04.998Z,128
2017-10-24T06:49:37.126Z,132
2017-10-24T06:50:09.342Z,128
2017-10-24T06:50:41.594Z,132
2017-10-24T06:51:13.794Z,148
2017-10-24T06:51:45.918Z,152
2017-10-24T06:52:18.167Z,148
2017-10-24T06:52:50.254Z,148
2017-10-24T06:53:22.421Z,156
2017-10-24T06:53:54.436Z,164
2017-10-24T06:54:26.612Z,180
2017-10-24T06:54:59.760Z,196
2017-10-24T06:55:32.283Z,200
2017-10-24T06:56:04.698Z,188
2017-10-24T06:56:36.979Z,196
2017-10-24T06:57:09.180Z,204
2017-10-24T06:57:41.299Z,196
2017-10-24T06:58:13.412Z,188
2017-10-24T06:58:45.583Z,180
2017-10-24T06:59:17.711Z,180
2017-10-24T06:59:49.897Z,188
2017-10-24T07:00:22.110Z,192
2017-10-24T07:00:54.372Z,220
2017-10-24T07:01:27.334Z,232
2017-10-24T07:02:01.581Z,232
2017-10-24T07:02:33.700Z,232
2017-10-24T07:03:05.754Z,228
2017-10-24T07:03:37.953Z,216
2017-10-24T07:04:10.291Z,220
2017-10-24T07:04:42.712Z,244
2017-10-24T07:05:14.912Z,244
2017-10-24T07:05:47.208Z,232
2017-10-24T07:06:19.461Z,240
2017-10-24T07:06:51.679Z,252
2017-10-24T07:07:23.904Z,268
2017-10-24T07:07:56.191Z,268
2017-10-24T07:08:28.339Z,276
2017-10-24T07:09:00.424Z,276
2017-10-24T07:09:32.615Z,272
2017-10-24T07:10:04.801Z,268
2017-10-24T07:10:36.977Z,272
2017-10-24T07:11:09.101Z,272
2017-10-24T07:11:41.355Z,280
2017-10-24T07:12:13.518Z,292
2017-10-24T07:12:46.632Z,324
2017-10-24T07:13:18.939Z,360
2017-10-24T07:13:51.242Z,360
2017-10-24T07:14:23.413Z,348
2017-10-24T07:14:57.315Z,336
2017-10-24T07:15:30.672Z,352
2017-10-24T07:16:02.820Z,392
2017-10-24T07:16:35.089Z,392
2017-10-24T07:17:07.324Z,376
2017-10-24T07:17:39.522Z,380
2017-10-24T07:18:11.668Z,384
2017-10-24T07:18:43.851Z,392
2017-10-24T07:19:15.947Z,380
2017-10-24T07:19:48.870Z,380
2017-10-24T07:20:21.203Z,372
2017-10-24T07:20:53.398Z,372
2017-10-24T07:21:25.554Z,380
2017-10-24T07:21:57.740Z,384
2017-10-24T07:22:30.158Z,380
2017-10-24T07:23:02.458Z,356
2017-10-24T07:23:34.772Z,364
2017-10-24T07:24:06.993Z,360
2017-10-24T07:24:39.274Z,324
2017-10-24T07:25:11.448Z,292
2017-10-24T07:25:43.702Z,272
2017-10-24T07:26:15.913Z,268
2017-10-24T07:26:47.997Z,268
2017-10-24T07:27:20.145Z,268
2017-10-24T07:27:52.330Z,280
2017-10-24T07:28:24.403Z,292
2017-10-24T07:28:56.476Z,276
2017-10-24T07:29:28.667Z,260
2017-10-24T07:30:00.811Z,244
2017-10-24T07:30:32.890Z,276
2017-10-24T07:31:04.968Z,292
2017-10-24T07:31:37.062Z,296
2017-10-24T07:32:09.273Z,304
2017-10-24T07:32:41.481Z,292
2017-10-24T07:33:13.629Z,284
2017-10-24T07:33:45.813Z,292
2017-10-24T07:34:17.930Z,316
2017-10-24T07:34:50.083Z,332
2017-10-24T07:35:22.087Z,332
2017-10-24T07:35:54.161Z,324
2017-10-24T07:36:26.347Z,324
2017-10-24T07:36:58.350Z,324
2017-10-24T07:37:30.714Z,308
2017-10-24T07:38:02.807Z,324
2017-10-24T07:38:34.963Z,356
2017-10-24T07:39:07.234Z,360
2017-10-24T07:39:39.425Z,360
2017-10-24T07:40:11.675Z,408
2017-10-24T07:40:43.869Z,448
2017-10-24T07:41:15.893Z,460
2017-10-24T07:41:48.179Z,432
2017-10-24T07:42:20.363Z,424
2017-10-24T07:42:52.716Z,420
2017-10-24T07:43:24.854Z,428
2017-10-24T07:43:56.978Z,448
2017-10-24T07:44:29.115Z,392
2017-10-24T07:45:01.250Z,376
2017-10-24T07:45:33.399Z,400
2017-10-24T07:46:05.676Z,420
2017-10-24T07:46:37.824Z,400
2017-10-24T07:47:09.916Z,388
2017-10-24T07:47:42.044Z,396
2017-10-24T07:48:14.120Z,384
2017-10-24T07:48:46.325Z,380
2017-10-24T07:49:18.430Z,408